sensor_id;sensor_type;location;lat;lon;timestamp;P1;P2;P0
69224;PMS1003;56333;51.306;17.056;2023-04-25T00:00:45;1.20;0.80;
69224;PMS1003;56333;51.306;17.056;2023-04-25T00:02:14;1.60;0.60;
69224;PMS1003;56333;51.306;17.056;2023-04-25T00:03:43;4.40;0.70;
69224;PMS1003;56333;51.306;17.056;2023-04-25T00:05:12;1.00;0.80;
69224;PMS1003;56333;51.306;17.056;2023-04-25T00:06:42;2.10;0.80;
69224;PMS1003;56333;51.306;17.056;2023-04-25T00:08:11;1.50;0.90;
69224;PMS1003;56333;51.306;17.056;2023-04-25T00:09:40;1.10;0.70;
69224;PMS1003;56333;51.306;17.056;2023-04-25T00:11:09;1.50;0.70;
69224;PMS1003;56333;51.306;17.056;2023-04-25T00:12:37;2.00;0.80;
69224;PMS1003;56333;51.306;17.056;2023-04-25T00:14:07;1.40;0.90;
69224;PMS1003;56333;51.306;17.056;2023-04-25T00:15:36;1.20;0.70;
69224;PMS1003;56333;51.306;17.056;2023-04-25T00:17:08;1.00;0.80;
69224;PMS1003;56333;51.306;17.056;2023-04-25T00:18:37;1.00;0.70;
69224;PMS1003;56333;51.306;17.056;2023-04-25T00:20:08;2.80;0.90;
69224;PMS1003;56333;51.306;17.056;2023-04-25T00:21:39;1.70;0.90;
69224;PMS1003;56333;51.306;17.056;2023-04-25T00:23:07;2.30;0.90;
69224;PMS1003;56333;51.306;17.056;2023-04-25T00:24:36;2.00;0.70;
69224;PMS1003;56333;51.306;17.056;2023-04-25T00:26:05;0.80;0.80;
69224;PMS1003;56333;51.306;17.056;2023-04-25T00:27:34;1.10;0.80;
69224;PMS1003;56333;51.306;17.056;2023-04-25T00:29:05;2.00;0.90;
69224;PMS1003;56333;51.306;17.056;2023-04-25T00:30:34;2.10;0.70;
69224;PMS1003;56333;51.306;17.056;2023-04-25T00:32:04;4.20;0.90;
69224;PMS1003;56333;51.306;17.056;2023-04-25T00:33:32;0.70;0.70;
69224;PMS1003;56333;51.306;17.056;2023-04-25T00:35:03;1.60;0.80;
69224;PMS1003;56333;51.306;17.056;2023-04-25T00:38:01;2.00;0.80;
69224;PMS1003;56333;51.306;17.056;2023-04-25T00:39:29;1.40;1.00;
69224;PMS1003;56333;51.306;17.056;2023-04-25T00:40:58;1.50;0.90;
69224;PMS1003;56333;51.306;17.056;2023-04-25T00:42:27;2.00;0.80;
69224;PMS1003;56333;51.306;17.056;2023-04-25T00:43:58;2.10;0.90;
69224;PMS1003;56333;51.306;17.056;2023-04-25T00:45:28;1.40;1.00;
69224;PMS1003;56333;51.306;17.056;2023-04-25T00:46:59;1.00;0.90;
69224;PMS1003;56333;51.306;17.056;2023-04-25T00:48:29;1.50;0.90;
69224;PMS1003;56333;51.306;17.056;2023-04-25T00:49:58;2.70;0.80;
69224;PMS1003;56333;51.306;17.056;2023-04-25T00:51:27;1.50;0.90;
69224;PMS1003;56333;51.306;17.056;2023-04-25T00:52:58;1.30;0.90;
69224;PMS1003;56333;51.306;17.056;2023-04-25T00:54:26;1.90;0.80;
69224;PMS1003;56333;51.306;17.056;2023-04-25T00:55:57;2.50;0.90;
69224;PMS1003;56333;51.306;17.056;2023-04-25T00:57:26;1.00;0.80;
69224;PMS1003;56333;51.306;17.056;2023-04-25T00:58:55;2.40;0.80;
69224;PMS1003;56333;51.306;17.056;2023-04-25T01:00:24;1.40;0.80;
69224;PMS1003;56333;51.306;17.056;2023-04-25T01:01:53;2.00;0.80;
69224;PMS1003;56333;51.306;17.056;2023-04-25T01:03:22;1.20;0.80;
69224;PMS1003;56333;51.306;17.056;2023-04-25T01:04:54;0.90;0.70;
69224;PMS1003;56333;51.306;17.056;2023-04-25T01:06:22;2.90;1.00;
69224;PMS1003;56333;51.306;17.056;2023-04-25T01:07:52;1.20;0.90;
69224;PMS1003;56333;51.306;17.056;2023-04-25T01:09:22;1.90;0.80;
69224;PMS1003;56333;51.306;17.056;2023-04-25T01:10:51;1.10;0.80;
69224;PMS1003;56333;51.306;17.056;2023-04-25T01:12:19;1.30;0.80;
69224;PMS1003;56333;51.306;17.056;2023-04-25T01:13:48;3.80;0.80;
69224;PMS1003;56333;51.306;17.056;2023-04-25T01:15:17;2.30;0.80;
69224;PMS1003;56333;51.306;17.056;2023-04-25T01:16:47;1.70;0.90;
69224;PMS1003;56333;51.306;17.056;2023-04-25T01:18:17;1.50;0.90;
69224;PMS1003;56333;51.306;17.056;2023-04-25T01:19:47;3.30;0.90;
69224;PMS1003;56333;51.306;17.056;2023-04-25T01:21:16;1.20;0.80;
69224;PMS1003;56333;51.306;17.056;2023-04-25T01:22:46;1.40;1.00;
69224;PMS1003;56333;51.306;17.056;2023-04-25T01:24:15;1.10;0.80;
69224;PMS1003;56333;51.306;17.056;2023-04-25T01:25:44;1.30;0.90;
69224;PMS1003;56333;51.306;17.056;2023-04-25T01:27:14;2.00;0.90;
69224;PMS1003;56333;51.306;17.056;2023-04-25T01:28:43;1.40;0.90;
69224;PMS1003;56333;51.306;17.056;2023-04-25T01:30:13;1.40;1.00;
69224;PMS1003;56333;51.306;17.056;2023-04-25T01:31:43;1.30;1.00;
69224;PMS1003;56333;51.306;17.056;2023-04-25T01:33:15;1.90;0.90;
69224;PMS1003;56333;51.306;17.056;2023-04-25T01:34:44;1.30;1.00;
69224;PMS1003;56333;51.306;17.056;2023-04-25T01:36:13;2.10;0.90;
69224;PMS1003;56333;51.306;17.056;2023-04-25T01:37:43;1.70;1.00;
69224;PMS1003;56333;51.306;17.056;2023-04-25T01:39:12;2.00;1.10;
69224;PMS1003;56333;51.306;17.056;2023-04-25T01:40:42;1.60;1.00;
69224;PMS1003;56333;51.306;17.056;2023-04-25T01:42:14;3.60;1.00;
69224;PMS1003;56333;51.306;17.056;2023-04-25T01:43:43;1.10;1.00;
69224;PMS1003;56333;51.306;17.056;2023-04-25T01:45:13;1.80;1.20;
69224;PMS1003;56333;51.306;17.056;2023-04-25T01:46:42;2.60;1.20;
69224;PMS1003;56333;51.306;17.056;2023-04-25T01:48:12;2.10;1.10;
69224;PMS1003;56333;51.306;17.056;2023-04-25T01:49:43;2.60;1.10;
69224;PMS1003;56333;51.306;17.056;2023-04-25T01:51:11;1.50;1.00;
69224;PMS1003;56333;51.306;17.056;2023-04-25T01:52:42;1.30;1.00;
69224;PMS1003;56333;51.306;17.056;2023-04-25T01:54:11;1.60;1.20;
69224;PMS1003;56333;51.306;17.056;2023-04-25T01:55:41;2.30;1.40;
69224;PMS1003;56333;51.306;17.056;2023-04-25T01:57:13;2.90;1.30;
69224;PMS1003;56333;51.306;17.056;2023-04-25T01:58:43;1.70;1.10;
69224;PMS1003;56333;51.306;17.056;2023-04-25T02:00:30;1.60;1.20;
69224;PMS1003;56333;51.306;17.056;2023-04-25T02:01:59;3.70;1.30;
69224;PMS1003;56333;51.306;17.056;2023-04-25T02:03:30;3.20;1.40;
69224;PMS1003;56333;51.306;17.056;2023-04-25T02:05:01;3.10;1.30;
69224;PMS1003;56333;51.306;17.056;2023-04-25T02:06:31;2.50;1.60;
69224;PMS1003;56333;51.306;17.056;2023-04-25T02:08:00;2.10;1.20;
69224;PMS1003;56333;51.306;17.056;2023-04-25T02:09:31;2.60;1.40;
69224;PMS1003;56333;51.306;17.056;2023-04-25T02:11:03;2.40;1.40;
69224;PMS1003;56333;51.306;17.056;2023-04-25T02:12:39;3.30;1.40;
69224;PMS1003;56333;51.306;17.056;2023-04-25T02:14:19;2.60;1.40;
69224;PMS1003;56333;51.306;17.056;2023-04-25T02:15:55;2.00;1.40;
69224;PMS1003;56333;51.306;17.056;2023-04-25T02:17:24;2.20;1.30;
69224;PMS1003;56333;51.306;17.056;2023-04-25T02:18:52;2.40;1.50;
69224;PMS1003;56333;51.306;17.056;2023-04-25T02:20:22;2.30;1.60;
69224;PMS1003;56333;51.306;17.056;2023-04-25T02:21:52;2.70;1.70;
69224;PMS1003;56333;51.306;17.056;2023-04-25T02:23:23;2.00;1.40;
69224;PMS1003;56333;51.306;17.056;2023-04-25T02:24:53;3.90;1.50;
69224;PMS1003;56333;51.306;17.056;2023-04-25T02:26:22;2.80;1.60;
69224;PMS1003;56333;51.306;17.056;2023-04-25T02:27:51;3.10;1.60;
69224;PMS1003;56333;51.306;17.056;2023-04-25T02:29:21;2.40;1.60;
69224;PMS1003;56333;51.306;17.056;2023-04-25T02:30:50;2.50;1.60;
69224;PMS1003;56333;51.306;17.056;2023-04-25T02:32:19;3.20;1.80;
69224;PMS1003;56333;51.306;17.056;2023-04-25T02:33:48;3.30;1.80;
69224;PMS1003;56333;51.306;17.056;2023-04-25T02:35:18;3.10;1.80;
69224;PMS1003;56333;51.306;17.056;2023-04-25T02:36:47;2.50;1.90;
69224;PMS1003;56333;51.306;17.056;2023-04-25T02:38:17;2.90;1.90;
69224;PMS1003;56333;51.306;17.056;2023-04-25T02:39:46;3.50;2.20;
69224;PMS1003;56333;51.306;17.056;2023-04-25T02:41:15;3.40;2.30;
69224;PMS1003;56333;51.306;17.056;2023-04-25T02:42:44;3.60;2.20;
69224;PMS1003;56333;51.306;17.056;2023-04-25T02:44:12;2.80;2.10;
69224;PMS1003;56333;51.306;17.056;2023-04-25T02:45:42;6.50;2.40;
69224;PMS1003;56333;51.306;17.056;2023-04-25T02:47:11;3.10;2.00;
69224;PMS1003;56333;51.306;17.056;2023-04-25T02:48:42;3.20;2.30;
69224;PMS1003;56333;51.306;17.056;2023-04-25T02:50:12;4.90;2.20;
69224;PMS1003;56333;51.306;17.056;2023-04-25T02:51:40;3.60;2.10;
69224;PMS1003;56333;51.306;17.056;2023-04-25T02:53:09;3.20;2.40;
69224;PMS1003;56333;51.306;17.056;2023-04-25T02:54:44;3.80;2.40;
69224;PMS1003;56333;51.306;17.056;2023-04-25T02:56:13;3.70;2.20;
69224;PMS1003;56333;51.306;17.056;2023-04-25T02:57:42;3.70;2.60;
69224;PMS1003;56333;51.306;17.056;2023-04-25T02:59:13;4.70;3.00;
69224;PMS1003;56333;51.306;17.056;2023-04-25T03:00:42;4.20;2.80;
69224;PMS1003;56333;51.306;17.056;2023-04-25T03:02:13;4.50;2.80;
69224;PMS1003;56333;51.306;17.056;2023-04-25T03:03:41;4.70;3.00;
69224;PMS1003;56333;51.306;17.056;2023-04-25T03:05:10;4.60;3.10;
69224;PMS1003;56333;51.306;17.056;2023-04-25T03:06:39;4.80;3.10;
69224;PMS1003;56333;51.306;17.056;2023-04-25T03:08:08;5.50;3.30;
69224;PMS1003;56333;51.306;17.056;2023-04-25T03:09:37;5.30;3.10;
69224;PMS1003;56333;51.306;17.056;2023-04-25T03:11:07;4.80;3.50;
69224;PMS1003;56333;51.306;17.056;2023-04-25T03:12:36;6.00;3.40;
69224;PMS1003;56333;51.306;17.056;2023-04-25T03:14:05;6.30;3.30;
69224;PMS1003;56333;51.306;17.056;2023-04-25T03:15:34;3.80;2.90;
69224;PMS1003;56333;51.306;17.056;2023-04-25T03:17:03;4.30;2.80;
69224;PMS1003;56333;51.306;17.056;2023-04-25T03:18:34;4.00;3.00;
69224;PMS1003;56333;51.306;17.056;2023-04-25T03:20:04;6.00;3.20;
69224;PMS1003;56333;51.306;17.056;2023-04-25T03:21:36;5.00;2.90;
69224;PMS1003;56333;51.306;17.056;2023-04-25T03:23:05;4.90;3.20;
69224;PMS1003;56333;51.306;17.056;2023-04-25T03:24:34;6.20;3.10;
69224;PMS1003;56333;51.306;17.056;2023-04-25T03:26:03;4.30;3.10;
69224;PMS1003;56333;51.306;17.056;2023-04-25T03:27:32;4.30;3.20;
69224;PMS1003;56333;51.306;17.056;2023-04-25T03:29:02;4.30;3.00;
69224;PMS1003;56333;51.306;17.056;2023-04-25T03:30:33;5.50;3.40;
69224;PMS1003;56333;51.306;17.056;2023-04-25T03:32:01;7.60;3.30;
69224;PMS1003;56333;51.306;17.056;2023-04-25T03:33:30;6.90;3.30;
69224;PMS1003;56333;51.306;17.056;2023-04-25T03:34:59;4.50;3.00;
69224;PMS1003;56333;51.306;17.056;2023-04-25T03:36:29;4.20;2.90;
69224;PMS1003;56333;51.306;17.056;2023-04-25T03:37:58;4.60;3.20;
69224;PMS1003;56333;51.306;17.056;2023-04-25T03:39:30;3.50;2.80;
69224;PMS1003;56333;51.306;17.056;2023-04-25T03:40:59;6.30;3.00;
69224;PMS1003;56333;51.306;17.056;2023-04-25T03:42:41;5.00;3.20;
69224;PMS1003;56333;51.306;17.056;2023-04-25T03:44:10;4.70;3.10;
69224;PMS1003;56333;51.306;17.056;2023-04-25T03:45:39;4.60;3.20;
69224;PMS1003;56333;51.306;17.056;2023-04-25T03:47:09;5.90;3.10;
69224;PMS1003;56333;51.306;17.056;2023-04-25T03:48:38;6.20;4.40;
69224;PMS1003;56333;51.306;17.056;2023-04-25T03:50:09;4.60;3.30;
69224;PMS1003;56333;51.306;17.056;2023-04-25T03:51:38;6.30;4.00;
69224;PMS1003;56333;51.306;17.056;2023-04-25T03:53:07;6.30;3.80;
69224;PMS1003;56333;51.306;17.056;2023-04-25T03:54:56;5.80;4.30;
69224;PMS1003;56333;51.306;17.056;2023-04-25T03:56:25;5.30;3.80;
69224;PMS1003;56333;51.306;17.056;2023-04-25T03:58:00;5.80;3.40;
69224;PMS1003;56333;51.306;17.056;2023-04-25T03:59:29;6.40;3.60;
69224;PMS1003;56333;51.306;17.056;2023-04-25T04:00:58;5.30;3.30;
69224;PMS1003;56333;51.306;17.056;2023-04-25T04:02:30;5.30;3.60;
69224;PMS1003;56333;51.306;17.056;2023-04-25T04:04:00;5.10;3.90;
69224;PMS1003;56333;51.306;17.056;2023-04-25T04:05:29;5.70;3.80;
69224;PMS1003;56333;51.306;17.056;2023-04-25T04:06:58;7.20;4.00;
69224;PMS1003;56333;51.306;17.056;2023-04-25T04:08:30;6.60;4.20;
69224;PMS1003;56333;51.306;17.056;2023-04-25T04:09:59;6.30;4.20;
69224;PMS1003;56333;51.306;17.056;2023-04-25T04:11:33;5.80;4.10;
69224;PMS1003;56333;51.306;17.056;2023-04-25T04:13:04;5.70;3.90;
69224;PMS1003;56333;51.306;17.056;2023-04-25T04:14:33;6.10;4.00;
69224;PMS1003;56333;51.306;17.056;2023-04-25T04:16:02;6.30;4.40;
69224;PMS1003;56333;51.306;17.056;2023-04-25T04:17:32;6.80;4.30;
69224;PMS1003;56333;51.306;17.056;2023-04-25T04:19:01;5.80;4.00;
69224;PMS1003;56333;51.306;17.056;2023-04-25T04:20:31;5.70;4.10;
69224;PMS1003;56333;51.306;17.056;2023-04-25T04:22:00;12.50;3.90;
69224;PMS1003;56333;51.306;17.056;2023-04-25T04:23:29;6.60;4.20;
69224;PMS1003;56333;51.306;17.056;2023-04-25T04:24:59;7.40;3.90;
69224;PMS1003;56333;51.306;17.056;2023-04-25T04:26:47;6.00;3.70;
69224;PMS1003;56333;51.306;17.056;2023-04-25T04:28:35;5.40;4.20;
69224;PMS1003;56333;51.306;17.056;2023-04-25T04:30:36;6.10;4.20;
69224;PMS1003;56333;51.306;17.056;2023-04-25T04:32:08;6.80;3.90;
69224;PMS1003;56333;51.306;17.056;2023-04-25T04:33:37;6.80;4.20;
69224;PMS1003;56333;51.306;17.056;2023-04-25T04:35:08;6.10;4.10;
69224;PMS1003;56333;51.306;17.056;2023-04-25T04:36:38;6.00;3.90;
69224;PMS1003;56333;51.306;17.056;2023-04-25T04:38:07;6.30;3.90;
69224;PMS1003;56333;51.306;17.056;2023-04-25T04:39:38;5.40;4.00;
69224;PMS1003;56333;51.306;17.056;2023-04-25T04:41:19;6.90;4.10;
69224;PMS1003;56333;51.306;17.056;2023-04-25T04:43:06;5.80;4.10;
69224;PMS1003;56333;51.306;17.056;2023-04-25T04:45:02;6.10;4.20;
69224;PMS1003;56333;51.306;17.056;2023-04-25T04:46:45;6.80;4.20;
69224;PMS1003;56333;51.306;17.056;2023-04-25T04:48:30;8.20;4.40;
69224;PMS1003;56333;51.306;17.056;2023-04-25T04:50:27;5.80;4.30;
69224;PMS1003;56333;51.306;17.056;2023-04-25T04:52:45;6.50;4.40;
69224;PMS1003;56333;51.306;17.056;2023-04-25T04:54:39;6.20;4.40;
69224;PMS1003;56333;51.306;17.056;2023-04-25T04:56:25;6.10;4.30;
69224;PMS1003;56333;51.306;17.056;2023-04-25T04:58:04;8.00;4.30;
69224;PMS1003;56333;51.306;17.056;2023-04-25T04:59:52;6.50;4.30;
69224;PMS1003;56333;51.306;17.056;2023-04-25T05:02:07;6.50;4.20;
69224;PMS1003;56333;51.306;17.056;2023-04-25T05:03:51;7.90;4.60;
69224;PMS1003;56333;51.306;17.056;2023-04-25T05:05:45;8.00;5.20;
69224;PMS1003;56333;51.306;17.056;2023-04-25T05:07:58;6.90;4.60;
69224;PMS1003;56333;51.306;17.056;2023-04-25T05:10:14;7.40;4.80;
69224;PMS1003;56333;51.306;17.056;2023-04-25T05:12:02;6.80;4.60;
69224;PMS1003;56333;51.306;17.056;2023-04-25T05:14:18;6.80;4.40;
69224;PMS1003;56333;51.306;17.056;2023-04-25T05:16:02;7.50;4.80;
69224;PMS1003;56333;51.306;17.056;2023-04-25T05:17:50;6.40;4.80;
69224;PMS1003;56333;51.306;17.056;2023-04-25T05:19:38;6.00;4.40;
69224;PMS1003;56333;51.306;17.056;2023-04-25T05:21:24;7.60;4.70;
69224;PMS1003;56333;51.306;17.056;2023-04-25T05:23:27;7.00;4.70;
69224;PMS1003;56333;51.306;17.056;2023-04-25T05:25:03;6.20;4.60;
69224;PMS1003;56333;51.306;17.056;2023-04-25T05:27:28;6.80;4.20;
69224;PMS1003;56333;51.306;17.056;2023-04-25T05:29:07;5.80;3.90;
69224;PMS1003;56333;51.306;17.056;2023-04-25T05:30:36;6.30;4.10;
69224;PMS1003;56333;51.306;17.056;2023-04-25T05:32:10;6.90;4.40;
69224;PMS1003;56333;51.306;17.056;2023-04-25T05:33:39;7.70;4.80;
69224;PMS1003;56333;51.306;17.056;2023-04-25T05:35:09;6.20;4.20;
69224;PMS1003;56333;51.306;17.056;2023-04-25T05:36:43;6.40;4.10;
69224;PMS1003;56333;51.306;17.056;2023-04-25T05:38:15;6.40;4.10;
69224;PMS1003;56333;51.306;17.056;2023-04-25T05:40:03;5.50;3.80;
69224;PMS1003;56333;51.306;17.056;2023-04-25T05:41:52;6.10;3.60;
69224;PMS1003;56333;51.306;17.056;2023-04-25T05:43:52;5.60;3.50;
69224;PMS1003;56333;51.306;17.056;2023-04-25T05:45:28;7.60;4.40;
69224;PMS1003;56333;51.306;17.056;2023-04-25T05:47:04;5.90;3.70;
69224;PMS1003;56333;51.306;17.056;2023-04-25T05:49:23;5.80;3.80;
69224;PMS1003;56333;51.306;17.056;2023-04-25T05:51:45;6.00;3.70;
69224;PMS1003;56333;51.306;17.056;2023-04-25T05:53:28;5.90;3.80;
69224;PMS1003;56333;51.306;17.056;2023-04-25T05:55:03;7.40;4.10;
69224;PMS1003;56333;51.306;17.056;2023-04-25T05:56:36;13.00;3.90;
69224;PMS1003;56333;51.306;17.056;2023-04-25T05:58:09;8.90;4.00;
69224;PMS1003;56333;51.306;17.056;2023-04-25T05:59:37;151.40;12.10;
69224;PMS1003;56333;51.306;17.056;2023-04-25T06:01:06;42.60;6.10;
69224;PMS1003;56333;51.306;17.056;2023-04-25T06:02:35;21.80;5.10;
69224;PMS1003;56333;51.306;17.056;2023-04-25T06:04:04;14.40;3.60;
69224;PMS1003;56333;51.306;17.056;2023-04-25T06:05:33;5.50;3.50;
69224;PMS1003;56333;51.306;17.056;2023-04-25T06:07:02;6.40;3.30;
69224;PMS1003;56333;51.306;17.056;2023-04-25T06:08:32;8.30;3.60;
69224;PMS1003;56333;51.306;17.056;2023-04-25T06:10:01;7.00;3.50;
69224;PMS1003;56333;51.306;17.056;2023-04-25T06:11:32;4.80;3.50;
69224;PMS1003;56333;51.306;17.056;2023-04-25T06:13:00;6.90;3.40;
69224;PMS1003;56333;51.306;17.056;2023-04-25T06:14:30;8.90;3.90;
69224;PMS1003;56333;51.306;17.056;2023-04-25T06:15:59;5.20;3.60;
69224;PMS1003;56333;51.306;17.056;2023-04-25T06:17:30;6.10;3.70;
69224;PMS1003;56333;51.306;17.056;2023-04-25T06:19:04;9.90;4.00;
69224;PMS1003;56333;51.306;17.056;2023-04-25T06:20:33;6.10;3.70;
69224;PMS1003;56333;51.306;17.056;2023-04-25T06:22:04;7.50;3.80;
69224;PMS1003;56333;51.306;17.056;2023-04-25T06:23:34;6.80;3.90;
69224;PMS1003;56333;51.306;17.056;2023-04-25T06:25:07;7.00;3.90;
69224;PMS1003;56333;51.306;17.056;2023-04-25T06:26:36;7.60;3.90;
69224;PMS1003;56333;51.306;17.056;2023-04-25T06:28:06;7.00;4.00;
69224;PMS1003;56333;51.306;17.056;2023-04-25T06:29:35;7.60;4.30;
69224;PMS1003;56333;51.306;17.056;2023-04-25T06:31:05;7.40;4.00;
69224;PMS1003;56333;51.306;17.056;2023-04-25T06:32:34;6.80;4.10;
69224;PMS1003;56333;51.306;17.056;2023-04-25T06:34:03;6.00;4.00;
69224;PMS1003;56333;51.306;17.056;2023-04-25T06:35:33;7.00;4.20;
69224;PMS1003;56333;51.306;17.056;2023-04-25T06:37:04;9.10;4.20;
69224;PMS1003;56333;51.306;17.056;2023-04-25T06:38:33;9.00;4.20;
69224;PMS1003;56333;51.306;17.056;2023-04-25T06:40:03;6.60;3.50;
69224;PMS1003;56333;51.306;17.056;2023-04-25T06:41:34;5.90;3.60;
69224;PMS1003;56333;51.306;17.056;2023-04-25T06:43:06;5.20;3.20;
69224;PMS1003;56333;51.306;17.056;2023-04-25T06:44:44;6.50;3.70;
69224;PMS1003;56333;51.306;17.056;2023-04-25T06:46:14;5.10;3.50;
69224;PMS1003;56333;51.306;17.056;2023-04-25T06:47:44;5.00;2.90;
69224;PMS1003;56333;51.306;17.056;2023-04-25T06:49:13;5.70;2.60;
69224;PMS1003;56333;51.306;17.056;2023-04-25T06:50:41;5.50;2.80;
69224;PMS1003;56333;51.306;17.056;2023-04-25T06:52:11;5.30;3.00;
69224;PMS1003;56333;51.306;17.056;2023-04-25T06:53:41;4.60;3.00;
69224;PMS1003;56333;51.306;17.056;2023-04-25T06:55:14;5.00;2.70;
69224;PMS1003;56333;51.306;17.056;2023-04-25T06:57:27;5.60;3.00;
69224;PMS1003;56333;51.306;17.056;2023-04-25T06:58:59;5.30;2.90;
69224;PMS1003;56333;51.306;17.056;2023-04-25T07:00:37;4.10;2.70;
69224;PMS1003;56333;51.306;17.056;2023-04-25T07:02:06;6.90;3.10;
69224;PMS1003;56333;51.306;17.056;2023-04-25T07:03:36;6.40;2.90;
69224;PMS1003;56333;51.306;17.056;2023-04-25T07:05:09;5.10;2.80;
69224;PMS1003;56333;51.306;17.056;2023-04-25T07:06:38;4.40;2.70;
69224;PMS1003;56333;51.306;17.056;2023-04-25T07:08:08;5.40;2.70;
69224;PMS1003;56333;51.306;17.056;2023-04-25T07:09:36;4.80;3.00;
69224;PMS1003;56333;51.306;17.056;2023-04-25T07:11:05;6.40;3.00;
69224;PMS1003;56333;51.306;17.056;2023-04-25T07:12:35;6.30;2.80;
69224;PMS1003;56333;51.306;17.056;2023-04-25T07:14:05;6.00;3.00;
69224;PMS1003;56333;51.306;17.056;2023-04-25T07:15:33;5.30;3.00;
69224;PMS1003;56333;51.306;17.056;2023-04-25T07:17:03;5.30;2.90;
69224;PMS1003;56333;51.306;17.056;2023-04-25T07:18:33;5.90;3.20;
69224;PMS1003;56333;51.306;17.056;2023-04-25T07:20:02;4.80;2.80;
69224;PMS1003;56333;51.306;17.056;2023-04-25T07:21:33;4.60;2.90;
69224;PMS1003;56333;51.306;17.056;2023-04-25T07:23:03;6.40;2.90;
69224;PMS1003;56333;51.306;17.056;2023-04-25T07:24:32;5.10;2.70;
69224;PMS1003;56333;51.306;17.056;2023-04-25T07:26:01;5.80;2.80;
69224;PMS1003;56333;51.306;17.056;2023-04-25T07:27:30;4.10;2.60;
69224;PMS1003;56333;51.306;17.056;2023-04-25T07:29:08;5.30;2.70;
69224;PMS1003;56333;51.306;17.056;2023-04-25T07:30:37;6.50;2.70;
69224;PMS1003;56333;51.306;17.056;2023-04-25T07:32:06;5.40;2.90;
69224;PMS1003;56333;51.306;17.056;2023-04-25T07:33:36;5.30;2.90;
69224;PMS1003;56333;51.306;17.056;2023-04-25T07:35:06;6.20;2.80;
69224;PMS1003;56333;51.306;17.056;2023-04-25T07:36:36;6.60;3.00;
69224;PMS1003;56333;51.306;17.056;2023-04-25T07:38:06;4.80;2.90;
69224;PMS1003;56333;51.306;17.056;2023-04-25T07:39:36;4.90;2.70;
69224;PMS1003;56333;51.306;17.056;2023-04-25T07:41:05;6.30;3.60;
69224;PMS1003;56333;51.306;17.056;2023-04-25T07:42:35;5.20;2.80;
69224;PMS1003;56333;51.306;17.056;2023-04-25T07:44:04;6.10;3.10;
69224;PMS1003;56333;51.306;17.056;2023-04-25T07:45:34;5.40;3.00;
69224;PMS1003;56333;51.306;17.056;2023-04-25T07:47:03;6.90;3.30;
69224;PMS1003;56333;51.306;17.056;2023-04-25T07:48:34;6.80;3.00;
69224;PMS1003;56333;51.306;17.056;2023-04-25T07:50:04;5.20;2.80;
69224;PMS1003;56333;51.306;17.056;2023-04-25T07:51:34;5.90;3.20;
69224;PMS1003;56333;51.306;17.056;2023-04-25T07:53:07;10.90;4.20;
69224;PMS1003;56333;51.306;17.056;2023-04-25T07:54:42;8.30;3.70;
69224;PMS1003;56333;51.306;17.056;2023-04-25T07:56:16;7.90;3.20;
69224;PMS1003;56333;51.306;17.056;2023-04-25T07:57:46;7.00;3.70;
69224;PMS1003;56333;51.306;17.056;2023-04-25T07:59:15;7.90;3.80;
69224;PMS1003;56333;51.306;17.056;2023-04-25T08:00:44;5.30;3.30;
69224;PMS1003;56333;51.306;17.056;2023-04-25T08:02:54;6.30;3.20;
69224;PMS1003;56333;51.306;17.056;2023-04-25T08:04:23;8.10;4.00;
69224;PMS1003;56333;51.306;17.056;2023-04-25T08:05:55;10.30;4.40;
69224;PMS1003;56333;51.306;17.056;2023-04-25T08:07:24;6.60;3.00;
69224;PMS1003;56333;51.306;17.056;2023-04-25T08:08:54;7.50;2.90;
69224;PMS1003;56333;51.306;17.056;2023-04-25T08:10:27;4.20;2.90;
69224;PMS1003;56333;51.306;17.056;2023-04-25T08:11:56;5.10;3.20;
69224;PMS1003;56333;51.306;17.056;2023-04-25T08:13:28;8.30;3.40;
69224;PMS1003;56333;51.306;17.056;2023-04-25T08:14:59;7.00;3.00;
69224;PMS1003;56333;51.306;17.056;2023-04-25T08:16:31;5.40;3.20;
69224;PMS1003;56333;51.306;17.056;2023-04-25T08:18:01;6.30;3.30;
69224;PMS1003;56333;51.306;17.056;2023-04-25T08:19:30;6.00;3.20;
69224;PMS1003;56333;51.306;17.056;2023-04-25T08:21:00;7.00;3.10;
69224;PMS1003;56333;51.306;17.056;2023-04-25T08:22:31;6.00;3.20;
69224;PMS1003;56333;51.306;17.056;2023-04-25T08:24:41;7.20;3.70;
69224;PMS1003;56333;51.306;17.056;2023-04-25T08:26:10;6.90;3.50;
69224;PMS1003;56333;51.306;17.056;2023-04-25T08:27:41;6.60;3.70;
69224;PMS1003;56333;51.306;17.056;2023-04-25T08:29:10;7.00;3.50;
69224;PMS1003;56333;51.306;17.056;2023-04-25T08:30:40;7.50;3.70;
69224;PMS1003;56333;51.306;17.056;2023-04-25T08:32:11;7.00;4.20;
69224;PMS1003;56333;51.306;17.056;2023-04-25T08:33:44;6.30;4.10;
69224;PMS1003;56333;51.306;17.056;2023-04-25T08:35:38;6.90;3.90;
69224;PMS1003;56333;51.306;17.056;2023-04-25T08:37:07;6.60;4.60;
69224;PMS1003;56333;51.306;17.056;2023-04-25T08:38:40;6.60;4.40;
69224;PMS1003;56333;51.306;17.056;2023-04-25T08:40:13;5.90;4.20;
69224;PMS1003;56333;51.306;17.056;2023-04-25T08:41:49;8.10;4.40;
69224;PMS1003;56333;51.306;17.056;2023-04-25T08:43:19;7.30;3.90;
69224;PMS1003;56333;51.306;17.056;2023-04-25T08:44:49;6.20;3.80;
69224;PMS1003;56333;51.306;17.056;2023-04-25T08:46:20;6.60;4.20;
69224;PMS1003;56333;51.306;17.056;2023-04-25T08:48:04;7.60;4.30;
69224;PMS1003;56333;51.306;17.056;2023-04-25T08:49:33;7.00;4.70;
69224;PMS1003;56333;51.306;17.056;2023-04-25T08:51:04;8.30;4.60;
69224;PMS1003;56333;51.306;17.056;2023-04-25T08:52:44;6.00;4.50;
69224;PMS1003;56333;51.306;17.056;2023-04-25T08:54:15;6.20;4.50;
69224;PMS1003;56333;51.306;17.056;2023-04-25T08:55:44;6.40;4.10;
69224;PMS1003;56333;51.306;17.056;2023-04-25T08:57:15;7.00;4.20;
69224;PMS1003;56333;51.306;17.056;2023-04-25T08:58:46;5.50;4.20;
69224;PMS1003;56333;51.306;17.056;2023-04-25T09:00:18;7.00;4.30;
69224;PMS1003;56333;51.306;17.056;2023-04-25T09:01:46;7.00;4.10;
69224;PMS1003;56333;51.306;17.056;2023-04-25T09:03:16;8.60;4.20;
69224;PMS1003;56333;51.306;17.056;2023-04-25T09:04:47;7.00;4.10;
69224;PMS1003;56333;51.306;17.056;2023-04-25T09:06:16;5.40;3.80;
69224;PMS1003;56333;51.306;17.056;2023-04-25T09:07:48;6.40;4.30;
69224;PMS1003;56333;51.306;17.056;2023-04-25T09:09:17;6.30;4.00;
69224;PMS1003;56333;51.306;17.056;2023-04-25T09:10:47;5.30;3.30;
69224;PMS1003;56333;51.306;17.056;2023-04-25T09:12:16;6.00;3.90;
69224;PMS1003;56333;51.306;17.056;2023-04-25T09:13:46;8.30;5.20;
69224;PMS1003;56333;51.306;17.056;2023-04-25T09:15:23;8.30;4.90;
69224;PMS1003;56333;51.306;17.056;2023-04-25T09:17:13;8.60;4.40;
69224;PMS1003;56333;51.306;17.056;2023-04-25T09:18:48;6.00;3.80;
69224;PMS1003;56333;51.306;17.056;2023-04-25T09:20:16;5.90;4.00;
69224;PMS1003;56333;51.306;17.056;2023-04-25T09:21:45;6.30;3.80;
69224;PMS1003;56333;51.306;17.056;2023-04-25T09:23:18;6.90;4.30;
69224;PMS1003;56333;51.306;17.056;2023-04-25T09:24:48;6.60;4.20;
69224;PMS1003;56333;51.306;17.056;2023-04-25T09:26:19;7.10;4.10;
69224;PMS1003;56333;51.306;17.056;2023-04-25T09:27:55;5.50;3.80;
69224;PMS1003;56333;51.306;17.056;2023-04-25T09:29:33;5.60;3.80;
69224;PMS1003;56333;51.306;17.056;2023-04-25T09:31:03;5.60;3.50;
69224;PMS1003;56333;51.306;17.056;2023-04-25T09:32:38;6.50;3.50;